Briefing drone pour Marguerittes

Rechercher une autre localisation

Conditions de vol :


Nous sommes le : Lundi 27 septembre 2021
Il est 00:11 UTC (02:11 LT)

Lever de soleil : 05:08 UTC (07:08 LT)
Coucher de soleil : 17:57 UTC (19:57 LT)

Météo

L'essentiel des conditions de vol

VIGILANCE MÉTÉO FRANCE - Gard (30)
Pas de vigilances particulieres
CARTE TEMSI
CARTES DES FRONTS
METAR de LFTW
LFTW 270000Z AUTO 32004KT CAVOK 16/13 Q1018

Date d'émission: 27/09/2021
Heure d'émission: 00:00 UTC
Vent: 320° pour 4 KT (7 km/h)
Visibilité horizontale: > 10 km
Plafond : Plafond et visibilité OK (CAVOK)
Température: 16 °C
Point de rosée: 13 °C
Humidité: 82%
Pression (QNH): 1018 hPa
TAF de LFTW
LFTW 261904Z 2619/2715 CNL

Conditions prévues :

Heure d'émission : Bulletin éffectué le 26 à 19:00 UTC
Prévision : Valide du 26 a 19:00 UTC au 27 a 15:00 UTC
Nuages : à 0ft (0 m)
WEBCAM POUR MARGUERITTES

Réglementation

Voler en sécurité

CARTES AERONAUTIQUE 1/500.000
CARTES VAC (LFTW)
SUP AIP




Chargement des AIP...
NOTAM (MARGUERITTES + Terrain à proximité / FIR )




Chargement des NOTAMS...
CONTACT PREFECTURE 30


Avertissement : Les données mises à disposition sont indicatives. Oxygène Drone ne pourra être tenu responsable de dégâts causés aux biens et aux personnes.